Time;durP1;ratioP1;P1;durP2;ratioP2;P2;SDS_P1;SDS_P2;PMS_P1;PMS_P2;Temp;Humidity;BMP_temperature;BMP_pressure;BME280_temperature;BME280_humidity;BME280_pressure;Samples;Min_cycle;Max_cycle;Signal;HPM_P1;HPM_P2
2023/09/14 00:00:04;;;;;;;0.80;0.40;;;;;;;-143.84;82.99;45090.97;5088863;28;20444;-57
2023/09/14 00:02:31;;;;;;;0.80;0.30;;;;;;;-143.84;83.03;45070.00;5088950;28;20432;-58
2023/09/14 00:04:58;;;;;;;0.80;0.30;;;;;;;-143.84;83.04;45070.00;5089038;28;20905;-57
2023/09/14 00:07:25;;;;;;;0.80;0.40;;;;;;;-143.84;82.88;45079.53;5088893;28;20479;-58
2023/09/14 00:09:52;;;;;;;0.80;0.30;;;;;;;-143.84;82.87;45094.78;5089000;28;20440;-57
2023/09/14 00:12:20;;;;;;;0.80;0.30;;;;;;;-143.84;82.89;45062.41;5089058;28;20457;-57
2023/09/14 00:14:48;;;;;;;0.80;0.30;;;;;;;-143.84;82.79;45056.69;5088361;28;21030;-57
2023/09/14 00:17:15;;;;;;;0.80;0.40;;;;;;;-143.84;82.73;45096.66;5088809;28;20440;-57
2023/09/14 00:19:42;;;;;;;0.80;0.40;;;;;;;-143.84;82.58;45071.91;5088968;28;20516;-57
2023/09/14 00:22:09;;;;;;;0.80;0.30;;;;;;;-143.84;82.52;45079.53;5088645;28;20435;-57
2023/09/14 00:24:36;;;;;;;0.80;0.40;;;;;;;-143.84;82.52;45073.81;5088747;28;20527;-57
2023/09/14 00:27:04;;;;;;;0.80;0.40;;;;;;;-143.84;82.64;45094.78;5088150;28;20891;-58
2023/09/14 00:29:33;;;;;;;0.80;0.30;;;;;;;-143.84;82.50;45075.72;5087753;28;20920;-57
2023/09/14 00:32:00;;;;;;;0.90;0.47;;;;;;;-143.84;82.60;45092.88;5088760;28;20882;-57
2023/09/14 00:34:27;;;;;;;0.80;0.40;;;;;;;-143.84;82.48;45056.69;5088843;28;20832;-57
2023/09/14 00:36:54;;;;;;;0.80;0.30;;;;;;;-143.84;82.43;45081.44;5087736;28;21011;-58
2023/09/14 00:39:21;;;;;;;0.80;0.40;;;;;;;-143.84;82.55;45064.31;5087588;28;20485;-58
2023/09/14 00:41:48;;;;;;;0.80;0.30;;;;;;;-143.84;82.91;45089.06;5088029;28;20525;-57
2023/09/14 00:44:15;;;;;;;0.80;0.40;;;;;;;-143.84;82.99;45096.66;5088220;28;20451;-55
2023/09/14 00:46:44;;;;;;;0.80;0.40;;;;;;;-143.84;83.04;45092.88;5087918;28;20536;-55
2023/09/14 00:49:11;;;;;;;0.80;0.40;;;;;;;-143.84;83.15;45092.88;5088038;28;20508;-55
2023/09/14 00:51:38;;;;;;;0.80;0.33;;;;;;;-143.84;83.16;45089.06;5087601;28;20500;-55
2023/09/14 00:54:06;;;;;;;0.80;0.30;;;;;;;-143.84;83.16;45098.56;5087414;28;20435;-55
2023/09/14 00:56:33;;;;;;;0.80;0.30;;;;;;;-143.84;82.99;45098.56;5091014;28;20436;-55
2023/09/14 00:59:02;;;;;;;0.80;0.30;;;;;;;-143.84;82.84;45071.91;5092004;28;20925;-55
2023/09/14 01:01:31;;;;;;;0.80;0.40;;;;;;;-143.84;83.18;45089.06;5091940;28;20443;-55
2023/09/14 01:04:00;;;;;;;0.80;0.40;;;;;;;-143.84;83.19;45066.22;5092097;28;21032;-55
2023/09/14 01:06:28;;;;;;;0.80;0.30;;;;;;;-143.84;83.55;45087.16;5092187;28;20487;-55
2023/09/14 01:08:55;;;;;;;0.80;0.30;;;;;;;-143.84;83.61;45089.06;5092467;28;20447;-55
2023/09/14 01:11:22;;;;;;;0.80;0.40;;;;;;;-143.84;83.69;45104.28;5092672;28;20440;-55
2023/09/14 01:13:57;;;;;;;0.80;0.30;;;;;;;-143.84;83.35;45083.34;5092567;28;20440;-55
2023/09/14 01:16:31;;;;;;;0.80;0.30;;;;;;;-143.84;83.25;45085.25;5092612;28;20446;-55
2023/09/14 01:19:08;;;;;;;0.80;0.40;;;;;;;-143.84;83.21;45083.34;5092033;28;21131;-55
2023/09/14 01:22:00;;;;;;;0.80;0.30;;;;;;;-143.84;83.44;45089.06;5091885;28;20512;-55
2023/09/14 01:24:46;;;;;;;0.80;0.37;;;;;;;-143.84;83.64;45083.34;5092194;28;20518;-55
2023/09/14 01:27:15;;;;;;;0.80;0.40;;;;;;;-143.84;83.52;45079.53;5091737;28;20471;-55
2023/09/14 01:29:42;;;;;;;0.80;0.57;;;;;;;-143.84;83.40;45089.06;5091785;28;20479;-55
2023/09/14 01:32:09;;;;;;;0.80;0.40;;;;;;;-143.84;83.60;45079.53;5092204;28;20439;-55
2023/09/14 01:34:37;;;;;;;0.80;0.30;;;;;;;-143.84;83.63;45068.13;5092037;28;20436;-55
2023/09/14 01:37:05;;;;;;;0.80;0.30;;;;;;;-143.84;83.87;45079.53;5091690;28;20435;-55
2023/09/14 01:39:35;;;;;;;0.80;0.30;;;;;;;-143.84;83.81;45092.88;5091605;28;20444;-55
2023/09/14 01:42:03;;;;;;;0.80;0.40;;;;;;;-143.84;83.87;45094.78;5091639;28;20435;-55
2023/09/14 01:44:32;;;;;;;0.80;0.30;;;;;;;-143.84;83.84;45089.06;5091662;28;20456;-55
2023/09/14 01:46:59;;;;;;;0.80;0.40;;;;;;;-143.84;83.41;45117.63;5091734;28;20536;-55
2023/09/14 01:49:26;;;;;;;0.80;0.40;;;;;;;-143.84;83.63;45100.47;5091546;28;20455;-55
2023/09/14 01:51:54;;;;;;;0.80;0.30;;;;;;;-143.84;83.52;45071.91;5091620;28;20450;-55
2023/09/14 01:54:21;;;;;;;1.63;0.90;;;;;;;-143.84;83.46;45075.72;5091422;28;20432;-55
2023/09/14 01:56:48;;;;;;;0.80;0.30;;;;;;;-143.84;83.23;45089.06;5091282;28;20440;-55
2023/09/14 01:59:15;;;;;;;0.80;0.40;;;;;;;-143.84;83.38;45094.78;5091440;28;20448;-55
2023/09/14 02:01:44;;;;;;;0.80;0.30;;;;;;;-143.84;83.45;45089.06;5091356;28;20429;-55
2023/09/14 02:04:11;;;;;;;0.80;0.30;;;;;;;-143.84;83.43;45081.44;5091401;28;20441;-55
2023/09/14 02:06:38;;;;;;;0.80;0.33;;;;;;;-143.84;83.32;45073.81;5090671;28;20479;-55
2023/09/14 02:09:05;;;;;;;0.80;0.40;;;;;;;-143.84;83.51;45073.81;5091398;28;20431;-55
2023/09/14 02:11:32;;;;;;;0.80;0.40;;;;;;;-143.84;83.26;45090.97;5090877;28;20440;-55
2023/09/14 02:13:59;;;;;;;0.80;0.30;;;;;;;-143.84;83.40;45102.38;5091112;28;20869;-55
2023/09/14 02:16:27;;;;;;;0.80;0.37;;;;;;;-143.84;83.56;45085.25;5091190;28;20544;-55
2023/09/14 02:18:55;;;;;;;0.80;0.40;;;;;;;-143.84;83.58;45096.66;5090803;28;20479;-55
2023/09/14 02:21:22;;;;;;;0.80;0.40;;;;;;;-143.84;83.66;45098.56;5091268;28;20447;-55
2023/09/14 02:23:49;;;;;;;0.80;0.40;;;;;;;-143.84;83.83;45075.72;5091174;28;20444;-55
2023/09/14 02:26:17;;;;;;;0.80;0.40;;;;;;;-143.84;83.99;45102.38;5091007;28;21279;-55
2023/09/14 02:28:44;;;;;;;0.80;0.30;;;;;;;-143.84;84.00;45083.34;5091191;28;20501;-55
2023/09/14 02:31:11;;;;;;;0.80;0.30;;;;;;;-143.84;84.03;45098.56;5091018;28;21235;-55
2023/09/14 02:33:38;;;;;;;0.80;0.30;;;;;;;-143.84;83.92;45090.97;5090859;28;20667;-55
2023/09/14 02:36:06;;;;;;;0.80;0.30;;;;;;;-143.84;83.74;45089.06;5090851;28;20950;-55
2023/09/14 02:38:34;;;;;;;0.80;0.40;;;;;;;-143.84;83.64;45090.97;5090761;28;20494;-55
2023/09/14 02:41:01;;;;;;;0.80;0.30;;;;;;;-143.84;83.55;45096.66;5090359;28;20519;-55
2023/09/14 02:43:28;;;;;;;0.80;0.40;;;;;;;-143.84;83.93;45104.28;5090542;28;20501;-55
2023/09/14 02:45:55;;;;;;;0.80;0.40;;;;;;;-143.84;83.62;45098.56;5090469;28;20444;-55
2023/09/14 02:48:22;;;;;;;0.80;0.40;;;;;;;-143.84;83.79;45098.56;5090500;28;20545;-55
2023/09/14 02:50:49;;;;;;;0.80;0.40;;;;;;;-143.84;83.93;45104.28;5090316;28;20446;-55
2023/09/14 02:53:18;;;;;;;0.80;0.40;;;;;;;-143.84;84.15;45089.06;5089986;28;20474;-55
2023/09/14 02:55:45;;;;;;;0.80;0.30;;;;;;;-143.84;84.17;45079.53;5090336;28;20456;-55
2023/09/14 02:58:12;;;;;;;0.80;0.40;;;;;;;-143.84;84.23;45085.25;5090217;28;20841;-54
2023/09/14 03:00:39;;;;;;;0.90;0.80;;;;;;;-143.84;84.09;45087.16;5090113;28;20458;-55
2023/09/14 03:03:08;;;;;;;0.80;0.40;;;;;;;-143.84;84.39;45092.88;5089942;28;20444;-55
2023/09/14 03:05:35;;;;;;;0.80;0.30;;;;;;;-143.84;84.43;45102.38;5090020;28;20436;-55
2023/09/14 03:08:02;;;;;;;0.80;0.40;;;;;;;-143.84;84.43;45089.06;5089956;28;20476;-55
2023/09/14 03:10:31;;;;;;;0.80;0.40;;;;;;;-143.84;84.75;45115.72;5090067;28;20493;-55
2023/09/14 03:12:58;;;;;;;0.80;0.40;;;;;;;-143.84;84.83;45085.25;5090001;28;21168;-55
2023/09/14 03:15:25;;;;;;;0.80;0.40;;;;;;;-143.84;84.64;45113.81;5089820;28;20450;-55
2023/09/14 03:17:52;;;;;;;0.80;0.30;;;;;;;-143.84;84.77;45117.63;5089484;28;20487;-55
2023/09/14 03:20:20;;;;;;;0.80;0.40;;;;;;;-143.84;85.17;45098.56;5088852;28;20436;-55
2023/09/14 03:22:47;;;;;;;0.80;0.40;;;;;;;-143.84;84.99;45110.00;5089443;28;20450;-55
2023/09/14 03:25:14;;;;;;;0.80;0.30;;;;;;;-143.84;85.06;45085.25;5086723;28;20959;-55
2023/09/14 03:27:44;;;;;;;1.17;0.67;;;;;;;-143.84;85.46;45089.06;5089134;28;20479;-55
2023/09/14 03:30:12;;;;;;;0.80;0.40;;;;;;;-143.84;85.54;45098.56;5089247;28;20956;-55
2023/09/14 03:32:39;;;;;;;0.80;0.33;;;;;;;-143.84;85.68;45094.78;5089481;28;20444;-55
2023/09/14 03:35:06;;;;;;;0.80;0.40;;;;;;;-143.84;85.79;45092.88;5089315;28;21188;-55
2023/09/14 03:37:35;;;;;;;0.80;0.40;;;;;;;-143.84;86.02;45085.25;5089312;28;20440;-55
2023/09/14 03:40:05;;;;;;;0.80;0.30;;;;;;;-143.84;86.18;45090.97;5089401;28;20964;-55
2023/09/14 03:42:34;;;;;;;0.80;0.40;;;;;;;-143.84;86.30;45117.63;5089123;28;20440;-55
2023/09/14 03:45:02;;;;;;;0.80;0.30;;;;;;;-143.84;86.21;45100.47;5089505;28;20440;-54
2023/09/14 03:47:30;;;;;;;0.80;0.40;;;;;;;-143.84;86.38;45087.16;5082839;28;20558;-54
2023/09/14 03:49:57;;;;;;;0.80;0.30;;;;;;;-143.84;86.70;45090.97;5070019;28;20969;-55
2023/09/14 03:52:24;;;;;;;0.80;0.30;;;;;;;-143.84;86.74;45102.38;5069117;28;20459;-55
2023/09/14 03:54:51;;;;;;;0.80;0.30;;;;;;;-143.84;87.03;45098.56;5069320;28;20453;-55
2023/09/14 03:57:18;;;;;;;0.80;0.50;;;;;;;-143.84;87.26;45106.19;5069072;28;20921;-55
2023/09/14 03:59:46;;;;;;;0.80;0.30;;;;;;;-143.84;87.87;45115.72;5075039;28;20443;-54
2023/09/14 04:02:14;;;;;;;0.80;0.40;;;;;;;-143.84;87.93;45098.56;5088718;28;20440;-55
2023/09/14 04:04:42;;;;;;;0.80;0.30;;;;;;;-143.84;87.85;45100.47;5084822;28;20514;-55
2023/09/14 04:07:10;;;;;;;0.80;0.40;;;;;;;-143.84;88.23;45096.66;5071425;28;20488;-55
2023/09/14 04:09:38;;;;;;;0.80;0.40;;;;;;;-143.84;88.34;45098.56;5068807;28;20445;-55
2023/09/14 04:12:06;;;;;;;0.80;0.30;;;;;;;-143.84;88.36;45087.16;5068606;28;20445;-55
2023/09/14 04:14:33;;;;;;;0.80;0.40;;;;;;;-143.84;88.13;45094.78;5068609;28;20478;-54
2023/09/14 04:17:01;;;;;;;0.80;0.30;;;;;;;-143.84;88.25;45098.56;5068381;28;20461;-55
2023/09/14 04:19:30;;;;;;;0.80;0.40;;;;;;;-143.84;88.14;45098.56;5068804;28;20476;-54
2023/09/14 04:21:58;;;;;;;0.80;0.40;;;;;;;-143.84;88.06;45104.28;5068486;28;20502;-55
2023/09/14 04:24:25;;;;;;;0.80;0.40;;;;;;;-143.84;88.17;45096.66;5068586;28;20502;-55
2023/09/14 04:26:52;;;;;;;0.80;0.30;;;;;;;-143.84;87.88;45098.56;5068473;28;20455;-55
2023/09/14 04:29:19;;;;;;;0.80;0.30;;;;;;;-143.84;87.59;45106.19;5068546;28;20984;-55
2023/09/14 04:31:46;;;;;;;0.80;0.40;;;;;;;-143.84;87.46;45102.38;5068161;28;20441;-55
2023/09/14 04:34:13;;;;;;;0.80;0.30;;;;;;;-143.84;87.28;45115.72;5068443;28;20492;-55
2023/09/14 04:36:42;;;;;;;0.80;0.40;;;;;;;-143.84;87.33;45087.16;5068548;28;20436;-55
2023/09/14 04:39:09;;;;;;;0.80;0.37;;;;;;;-143.84;87.25;45100.47;5068504;28;20666;-55
2023/09/14 04:41:36;;;;;;;0.80;0.30;;;;;;;-143.84;87.01;45110.00;5068430;28;20807;-55
2023/09/14 04:44:04;;;;;;;0.80;0.30;;;;;;;-143.84;86.93;45075.72;5068248;28;20498;-55
2023/09/14 04:46:31;;;;;;;0.80;0.40;;;;;;;-143.84;86.45;45081.44;5068543;28;20868;-55
2023/09/14 04:48:58;;;;;;;0.80;0.30;;;;;;;-143.84;85.59;45085.25;5068393;28;20480;-55
2023/09/14 04:51:25;;;;;;;0.80;0.30;;;;;;;-143.84;84.65;45060.50;5068521;28;20835;-55
2023/09/14 04:53:54;;;;;;;0.80;0.33;;;;;;;-143.84;83.66;45075.72;5068423;28;20448;-54
2023/09/14 04:56:21;;;;;;;0.80;0.30;;;;;;;-143.84;81.84;45098.56;5068250;28;20510;-55
2023/09/14 04:58:48;;;;;;;0.80;0.30;;;;;;;-143.84;80.44;45100.47;5068306;28;20498;-55
2023/09/14 05:01:15;;;;;;;0.80;0.30;;;;;;;-143.84;78.73;45094.78;5068330;28;20494;-55
2023/09/14 05:03:42;;;;;;;0.80;0.40;;;;;;;-143.84;77.40;45085.25;5068167;28;20978;-55
2023/09/14 05:06:09;;;;;;;0.80;0.40;;;;;;;-143.84;76.72;45092.88;5068125;28;20950;-55
2023/09/14 05:08:36;;;;;;;0.80;0.30;;;;;;;-143.84;75.38;45047.16;5068168;28;20488;-55
2023/09/14 05:11:05;;;;;;;0.80;0.40;;;;;;;-143.84;74.01;45049.06;5068235;28;20432;-55
2023/09/14 05:13:32;;;;;;;0.80;0.30;;;;;;;-143.84;72.87;45047.16;5068167;28;20942;-55
2023/09/14 05:15:59;;;;;;;0.80;0.30;;;;;;;-143.84;71.89;45056.69;5068359;28;21002;-55
2023/09/14 05:18:26;;;;;;;0.80;0.30;;;;;;;-143.84;71.79;45054.78;5067768;28;20487;-54
2023/09/14 05:20:53;;;;;;;0.80;0.30;;;;;;;-143.84;70.97;45071.91;5067923;28;20955;-55
2023/09/14 05:23:20;;;;;;;0.80;0.30;;;;;;;-143.84;70.34;45062.41;5068171;28;20814;-55
2023/09/14 05:25:47;;;;;;;0.80;0.30;;;;;;;-143.84;69.03;45020.50;5068243;28;20441;-54
2023/09/14 05:28:16;;;;;;;0.83;0.30;;;;;;;-143.84;68.01;45047.16;5067865;28;20846;-55
2023/09/14 05:30:44;;;;;;;0.90;0.30;;;;;;;-143.84;67.29;45064.31;5067982;28;20449;-54
2023/09/14 05:33:11;;;;;;;0.83;0.30;;;;;;;-143.84;67.32;45049.06;5067848;28;20545;-55
2023/09/14 05:35:38;;;;;;;0.90;0.30;;;;;;;-143.84;66.79;45028.13;5068051;28;20440;-54
2023/09/14 05:38:05;;;;;;;0.90;0.30;;;;;;;-143.84;66.00;45054.78;5068299;28;20458;-54
2023/09/14 05:40:33;;;;;;;0.90;0.40;;;;;;;-143.84;66.90;45035.75;5075470;28;20440;-54
2023/09/14 05:43:00;;;;;;;0.90;0.33;;;;;;;-143.84;66.44;45014.78;5090600;28;20936;-54
2023/09/14 05:45:29;;;;;;;0.90;0.40;;;;;;;-143.84;66.07;45050.97;5091497;28;20447;-54
2023/09/14 05:47:56;;;;;;;0.90;0.30;;;;;;;-143.84;65.68;45043.34;5091318;28;20472;-54
2023/09/14 05:50:23;;;;;;;0.90;0.30;;;;;;;-143.84;65.81;45014.78;5091496;28;20444;-54
2023/09/14 05:52:51;;;;;;;0.90;0.30;;;;;;;-143.84;65.42;45033.84;5091701;28;20539;-54
2023/09/14 05:55:18;;;;;;;0.90;0.30;;;;;;;-143.84;65.02;45026.22;5091492;28;20475;-54
2023/09/14 05:57:45;;;;;;;0.90;0.30;;;;;;;-143.84;64.17;45033.84;5091479;28;20435;-54
2023/09/14 06:00:13;;;;;;;0.90;0.30;;;;;;;-143.84;64.46;45031.94;5091553;28;20849;-54
2023/09/14 06:02:43;;;;;;;0.90;0.30;;;;;;;-143.84;64.65;44995.75;5091202;28;20945;-54
2023/09/14 06:05:11;;;;;;;0.90;0.30;;;;;;;-143.84;63.74;45026.22;5091286;28;20855;-54
2023/09/14 06:07:38;;;;;;;0.90;0.30;;;;;;;-143.84;63.37;45018.59;5091067;28;20531;-54
2023/09/14 06:10:06;;;;;;;0.90;0.40;;;;;;;-143.84;63.42;45018.59;5091253;28;20448;-54
2023/09/14 06:12:33;;;;;;;0.90;0.33;;;;;;;-143.84;63.68;45041.44;5091200;28;20504;-54
2023/09/14 06:15:00;;;;;;;0.90;0.30;;;;;;;-143.84;63.94;45026.22;5091252;28;20948;-54
2023/09/14 06:17:28;;;;;;;0.90;0.30;;;;;;;-143.84;63.92;45047.16;5090703;28;20992;-54
2023/09/14 06:19:56;;;;;;;0.90;0.30;;;;;;;-143.84;64.27;45022.41;5090852;28;20501;-54
2023/09/14 06:22:23;;;;;;;0.90;0.40;;;;;;;-143.84;64.80;45014.78;5090762;28;20451;-54
2023/09/14 06:24:50;;;;;;;0.90;0.30;;;;;;;-143.84;63.53;45009.09;5090909;28;20485;-54
2023/09/14 06:27:17;;;;;;;0.90;0.30;;;;;;;-143.84;64.43;45001.47;5091000;28;20428;-54
2023/09/14 06:29:44;;;;;;;0.90;0.30;;;;;;;-143.84;62.90;45024.31;5090687;28;20536;-55
2023/09/14 06:32:12;;;;;;;0.90;0.30;;;;;;;-143.84;62.90;45026.22;5090601;28;20440;-55
2023/09/14 06:34:39;;;;;;;0.90;0.30;;;;;;;-143.84;62.00;45009.09;5090732;28;20496;-54
2023/09/14 06:37:07;;;;;;;0.90;0.30;;;;;;;-143.84;62.63;45020.50;5090834;28;20512;-54
2023/09/14 06:39:34;;;;;;;0.90;0.30;;;;;;;-143.84;63.73;45037.66;5090560;28;20436;-54
2023/09/14 06:42:01;;;;;;;0.90;0.30;;;;;;;-143.84;64.37;45003.38;5090529;28;20493;-54
2023/09/14 06:44:28;;;;;;;0.90;0.30;;;;;;;-143.84;62.44;45009.09;5090340;28;20436;-54
2023/09/14 06:46:56;;;;;;;0.90;0.30;;;;;;;-143.84;62.63;44993.84;5090242;28;20489;-54
2023/09/14 06:49:23;;;;;;;0.90;0.40;;;;;;;-143.84;62.62;45018.59;5090241;28;20479;-54
2023/09/14 06:51:50;;;;;;;0.90;0.30;;;;;;;-143.84;63.04;45007.19;5090567;28;20468;-54
2023/09/14 06:54:18;;;;;;;0.90;0.37;;;;;;;-143.84;61.20;45039.53;5090117;28;20474;-55
2023/09/14 06:56:46;;;;;;;0.90;0.30;;;;;;;-143.84;61.05;45010.97;5090335;28;20840;-54
2023/09/14 06:59:14;;;;;;;0.90;0.30;;;;;;;-143.84;60.77;45010.97;5089955;28;20440;-54
2023/09/14 07:01:41;;;;;;;0.90;0.30;;;;;;;-143.84;62.40;45014.78;5090248;28;20448;-54
2023/09/14 07:04:08;;;;;;;0.90;0.30;;;;;;;-143.84;62.58;45028.13;5090201;28;20497;-55
2023/09/14 07:06:35;;;;;;;0.90;0.30;;;;;;;-143.84;62.29;45001.47;5090338;28;20922;-54
2023/09/14 07:09:06;;;;;;;0.90;0.30;;;;;;;-143.84;62.47;45033.84;5089847;28;20480;-54
2023/09/14 07:11:34;;;;;;;0.90;0.30;;;;;;;-143.84;61.37;45001.47;5089933;28;20459;-55
2023/09/14 07:14:03;;;;;;;0.90;0.30;;;;;;;-143.84;61.52;45005.28;5089875;28;20508;-54
2023/09/14 07:16:30;;;;;;;0.90;0.30;;;;;;;-143.84;63.13;45003.38;5090053;28;20811;-54
2023/09/14 07:18:58;;;;;;;0.90;0.30;;;;;;;-143.84;60.93;44995.75;5089533;28;20886;-54
2023/09/14 07:21:26;;;;;;;0.90;0.40;;;;;;;-143.84;60.83;44997.66;5090024;28;20440;-54
2023/09/14 07:23:53;;;;;;;0.90;0.40;;;;;;;-143.84;60.10;45035.75;5089800;28;20497;-55
2023/09/14 07:26:20;;;;;;;0.90;0.40;;;;;;;-143.84;60.07;44999.56;5089587;28;20450;-55
2023/09/14 07:28:50;;;;;;;0.90;0.40;;;;;;;-143.84;60.62;44984.31;5089407;28;20893;-54
2023/09/14 07:31:18;;;;;;;0.90;0.40;;;;;;;-143.84;61.04;45014.78;5089679;28;20475;-55
2023/09/14 07:33:46;;;;;;;0.90;0.30;;;;;;;-143.84;61.30;45001.47;5089842;28;20460;-55
2023/09/14 07:36:13;;;;;;;0.90;0.30;;;;;;;-143.84;59.68;44993.84;5089476;28;20443;-54
2023/09/14 07:38:40;;;;;;;0.90;0.30;;;;;;;-143.84;59.21;45016.69;5089555;28;20443;-54
2023/09/14 07:41:08;;;;;;;0.90;0.40;;;;;;;-143.84;60.05;44984.31;5089294;28;20451;-54
2023/09/14 07:43:36;;;;;;;0.90;0.40;;;;;;;-143.84;56.71;45003.38;5089249;28;20440;-54
2023/09/14 07:46:04;;;;;;;0.90;0.30;;;;;;;-143.84;58.13;45010.97;5089228;28;20450;-54
2023/09/14 07:48:32;;;;;;;0.90;0.40;;;;;;;-143.84;58.92;44999.56;5089302;28;20488;-54
2023/09/14 07:50:59;;;;;;;0.90;0.30;;;;;;;-143.84;60.07;45016.69;5089238;28;20650;-54
2023/09/14 07:53:26;;;;;;;0.90;0.30;;;;;;;-143.84;59.81;45007.19;5089505;28;20432;-54
2023/09/14 07:55:53;;;;;;;0.90;0.40;;;;;;;-143.84;60.65;44988.13;5089223;28;20452;-54
2023/09/14 07:58:21;;;;;;;0.90;0.40;;;;;;;-143.84;61.31;44995.75;5088744;28;21195;-54
2023/09/14 08:00:48;;;;;;;0.90;0.30;;;;;;;-143.84;60.66;44976.72;5088638;28;21061;-55
2023/09/14 08:03:16;;;;;;;1.10;0.50;;;;;;;-143.84;60.94;45001.47;5089048;28;20439;-54
2023/09/14 08:05:44;;;;;;;0.90;0.30;;;;;;;-143.84;61.01;45030.03;5088249;28;20932;-54
2023/09/14 08:08:11;;;;;;;0.90;0.40;;;;;;;-143.84;59.17;45005.28;5088290;28;20448;-54
2023/09/14 08:10:39;;;;;;;0.90;0.30;;;;;;;-143.84;60.67;45020.50;5088368;28;20440;-54
2023/09/14 08:13:06;;;;;;;1.63;0.83;;;;;;;-143.84;61.57;44997.66;5088798;28;20797;-55
2023/09/14 08:15:33;;;;;;;0.90;0.30;;;;;;;-143.84;62.77;45018.59;5088996;28;20439;-54
2023/09/14 08:18:00;;;;;;;0.90;0.40;;;;;;;-143.84;61.96;44984.31;5088675;28;20616;-54
2023/09/14 08:20:29;;;;;;;0.90;0.40;;;;;;;-143.84;62.27;45031.94;5088858;28;20446;-55
2023/09/14 08:22:56;;;;;;;0.90;0.40;;;;;;;-143.84;62.02;44990.03;5088787;28;20455;-54
2023/09/14 08:25:23;;;;;;;0.90;0.30;;;;;;;-143.84;61.22;44986.22;5089057;28;21165;-54
2023/09/14 08:27:50;;;;;;;1.30;0.60;;;;;;;-143.84;61.76;44984.31;5088929;28;20447;-55
2023/09/14 08:30:18;;;;;;;0.90;0.30;;;;;;;-143.84;61.49;44986.22;5088628;28;20930;-54
2023/09/14 08:32:45;;;;;;;0.90;0.50;;;;;;;-143.84;62.17;45014.78;5088329;28;20447;-54
2023/09/14 08:35:22;;;;;;;0.90;0.50;;;;;;;-143.84;60.83;44988.13;5088478;28;20444;-54
2023/09/14 08:37:52;;;;;;;0.90;0.30;;;;;;;-143.84;62.37;45022.41;5088539;28;20444;-54
2023/09/14 08:40:19;;;;;;;1.20;0.60;;;;;;;-143.84;62.54;45020.50;5088408;28;20547;-54
2023/09/14 08:42:50;;;;;;;0.90;0.40;;;;;;;-143.84;63.78;44993.84;5088420;28;20450;-54
2023/09/14 08:45:21;;;;;;;1.00;0.40;;;;;;;-143.84;62.34;44988.13;5088651;28;20443;-54
2023/09/14 08:47:50;;;;;;;0.90;0.30;;;;;;;-143.84;61.94;44999.56;5088716;28;20971;-54
2023/09/14 08:50:19;;;;;;;0.90;0.40;;;;;;;-143.84;62.84;44995.75;5088384;28;20536;-54
2023/09/14 08:52:47;;;;;;;1.20;0.50;;;;;;;-143.84;63.01;45022.41;5075513;28;20467;-54
2023/09/14 08:55:18;;;;;;;0.90;0.50;;;;;;;-143.84;63.77;45024.31;5087216;28;20509;-54
2023/09/14 08:57:46;;;;;;;0.90;0.30;;;;;;;-143.84;62.85;44984.31;5088298;28;20799;-54
2023/09/14 09:00:16;;;;;;;0.90;0.40;;;;;;;-143.84;63.51;45007.19;5088276;28;20440;-54
2023/09/14 09:02:44;;;;;;;0.90;0.30;;;;;;;-143.84;62.00;45016.69;5088708;28;20443;-54
2023/09/14 09:05:12;;;;;;;0.90;0.30;;;;;;;-143.84;62.17;45018.59;5088419;28;20443;-54
2023/09/14 09:07:41;;;;;;;0.90;0.40;;;;;;;-143.84;62.49;45037.66;5088325;28;20448;-54
2023/09/14 09:10:16;;;;;;;0.90;0.60;;;;;;;-143.84;62.74;45012.88;5088198;28;21205;-54
2023/09/14 09:12:46;;;;;;;0.90;0.40;;;;;;;-143.84;63.39;45033.84;5088196;28;20446;-54
2023/09/14 09:15:14;;;;;;;0.90;0.30;;;;;;;-143.84;63.79;44990.03;5088282;28;20535;-54
2023/09/14 09:17:44;;;;;;;0.90;0.30;;;;;;;-143.84;62.72;45012.88;5089826;28;21071;-54
2023/09/14 09:20:19;;;;;;;0.90;0.30;;;;;;;-143.84;63.09;45007.19;5092154;28;20443;-54
2023/09/14 09:22:47;;;;;;;0.90;0.30;;;;;;;-143.84;61.65;45018.59;5092329;28;20456;-54
2023/09/14 09:25:15;;;;;;;0.90;0.40;;;;;;;-143.84;60.85;45001.47;5092208;28;20492;-54
2023/09/14 09:27:42;;;;;;;0.90;0.40;;;;;;;-143.84;62.83;45016.69;5091838;28;20941;-54
2023/09/14 09:30:11;;;;;;;0.90;0.30;;;;;;;-143.84;63.86;45007.19;5091699;28;20483;-55
2023/09/14 09:32:39;;;;;;;1.77;0.93;;;;;;;-143.84;65.46;45024.31;5091999;28;20941;-54
2023/09/14 09:35:21;;;;;;;0.90;0.40;;;;;;;-143.84;65.96;44995.75;5091835;28;20436;-54
2023/09/14 09:37:49;;;;;;;0.90;0.30;;;;;;;-143.84;62.95;45031.94;5091966;28;20447;-54
2023/09/14 09:40:18;;;;;;;0.90;0.30;;;;;;;-143.84;64.32;45001.47;5089363;28;20444;-54
2023/09/14 09:42:45;;;;;;;0.90;0.30;;;;;;;-143.84;63.77;45050.97;5087109;28;20521;-54
2023/09/14 09:45:15;;;;;;;0.90;0.30;;;;;;;-143.84;62.12;44997.66;5091714;28;20963;-54
2023/09/14 09:47:43;;;;;;;0.90;0.30;;;;;;;-143.84;63.95;45014.78;5091535;28;20446;-54
2023/09/14 09:50:11;;;;;;;0.90;0.30;;;;;;;-143.84;62.23;45016.69;5091533;28;20483;-55
2023/09/14 09:52:40;;;;;;;0.90;0.30;;;;;;;-143.84;64.11;45016.69;5091368;28;20450;-54
2023/09/14 09:55:08;;;;;;;0.90;0.40;;;;;;;-143.84;64.61;45009.09;5091232;28;20440;-55
2023/09/14 09:57:37;;;;;;;1.00;0.60;;;;;;;-143.84;64.31;45010.97;5091370;28;20505;-55
2023/09/14 10:00:12;;;;;;;0.90;0.30;;;;;;;-143.84;64.47;45026.22;5091357;28;21032;-54
2023/09/14 10:02:41;;;;;;;0.90;0.30;;;;;;;-143.84;63.67;45014.78;5091456;28;20439;-55
2023/09/14 10:05:09;;;;;;;1.03;0.50;;;;;;;-143.84;63.60;44991.94;5091540;28;20478;-55
2023/09/14 10:07:39;;;;;;;0.90;0.30;;;;;;;-143.84;64.94;45016.69;5090972;28;20447;-55
2023/09/14 10:10:08;;;;;;;0.90;0.30;;;;;;;-143.84;64.81;45009.09;5090933;28;20475;-55
2023/09/14 10:12:40;;;;;;;0.90;0.40;;;;;;;-143.84;64.51;45010.97;5090967;28;20471;-54
2023/09/14 10:15:09;;;;;;;0.90;0.30;;;;;;;-143.84;65.88;45010.97;5091009;28;20444;-55
2023/09/14 10:17:37;;;;;;;0.90;0.40;;;;;;;-143.84;63.42;45003.38;5090884;28;20494;-54
2023/09/14 10:20:09;;;;;;;0.90;0.30;;;;;;;-143.84;66.37;44997.66;5090909;28;20467;-55
2023/09/14 10:22:38;;;;;;;0.90;0.30;;;;;;;-143.84;65.34;45030.03;5091095;28;20522;-54
2023/09/14 10:25:07;;;;;;;0.90;0.30;;;;;;;-143.84;65.77;45009.09;5091109;28;21297;-54
2023/09/14 10:27:34;;;;;;;0.90;0.30;;;;;;;-143.84;65.92;45039.53;5090361;28;20443;-54
2023/09/14 10:30:05;;;;;;;0.90;0.30;;;;;;;-143.84;66.48;45018.59;5090776;28;20475;-55
2023/09/14 10:32:36;;;;;;;0.93;0.73;;;;;;;-143.84;66.85;45018.59;5091083;28;20435;-54
2023/09/14 10:35:06;;;;;;;0.90;0.30;;;;;;;-143.84;66.26;44997.66;5090719;28;20572;-54
2023/09/14 10:37:35;;;;;;;0.90;0.40;;;;;;;-143.84;68.01;45018.59;5090772;28;20436;-54
2023/09/14 10:40:04;;;;;;;0.90;0.40;;;;;;;-143.84;68.00;45012.88;5090516;28;20443;-54
2023/09/14 10:42:31;;;;;;;0.90;0.30;;;;;;;-143.84;66.71;45022.41;5090937;28;20849;-54
2023/09/14 10:44:58;;;;;;;0.90;0.40;;;;;;;-143.84;69.17;45020.50;5090452;28;20444;-54
2023/09/14 10:47:31;;;;;;;0.90;0.30;;;;;;;-143.84;68.65;45037.66;5090305;28;20470;-54
2023/09/14 10:49:58;;;;;;;0.90;0.30;;;;;;;-143.84;65.20;45035.75;5090438;28;20475;-54
2023/09/14 10:52:29;;;;;;;0.90;0.50;;;;;;;-143.84;65.92;45058.59;5090110;28;20436;-54
2023/09/14 10:54:57;;;;;;;1.40;0.73;;;;;;;-143.84;66.27;44993.84;5090314;28;20447;-55
2023/09/14 10:57:27;;;;;;;0.90;0.60;;;;;;;-143.84;66.35;45016.69;5090250;28;20440;-54
2023/09/14 10:59:57;;;;;;;0.90;0.30;;;;;;;-143.84;68.43;45033.84;5090359;28;20493;-54
2023/09/14 11:02:55;;;;;;;0.90;0.30;;;;;;;-143.84;66.10;45047.16;5090097;28;20451;-54
2023/09/14 11:05:24;;;;;;;0.90;0.30;;;;;;;-143.84;67.66;45035.75;5090328;28;20522;-54
2023/09/14 11:08:00;;;;;;;0.90;0.30;;;;;;;-143.84;67.09;45022.41;5089881;28;20443;-54
2023/09/14 11:10:29;;;;;;;0.90;0.40;;;;;;;-143.84;66.53;45033.84;5089933;28;20981;-55
2023/09/14 11:13:30;;;;;;;0.90;0.30;;;;;;;-143.84;68.00;45031.94;5089815;28;20443;-55
2023/09/14 11:16:18;;;;;;;1.10;0.50;;;;;;;-143.84;69.03;45026.22;5087759;28;20455;-55
2023/09/14 11:18:52;;;;;;;0.90;0.30;;;;;;;-143.84;67.45;45022.41;5089625;28;20574;-55
2023/09/14 11:21:47;;;;;;;0.90;0.30;;;;;;;-143.84;67.45;45007.19;5089534;28;20443;-55